MV Sebastian D — WDH9021 — position and weather

sailwx.info

Track history (hours):
 
Tides and Currents Weather Stations Pressure Air Temp Water Temp Dewpoint Dewpoint Depression Visibility Wind Speed Wind Dir Waves Ship Positions

MV Sebastian D

Owner: Enterprise Marine Services, LLC, San Antonio, TX. More information available from US FCC via Universal Licensing System and Coast Guard Vessel Documentation Center.

Last reported at 2017-Sep-17 04:45 UTC. Time now 2017-Sep-26 16:34 UTC.
Position N 29°49' W 093°59'.
Warning: this ship's position is 9 days out of date.

Length 25 m; draft 3 m.

Type: Towing. MMSI: 367663890.

Date/timePositionNaut miles runAvg speedWind from/ knotsBaromVisibWave heightAir tempDewpointWater temp
2017-Sep-17 04:45N 29°49' W 093°59'2 2.5
2017-Sep-17 04:03N 29°48' W 094°00'1 6.3
2017-Sep-17 03:49N 29°47' W 094°01'3 6.4
2017-Sep-17 03:23N 29°45' W 094°04'3 6.4
2017-Sep-17 02:59N 29°44' W 094°06'3 5.4
2017-Sep-17 02:30N 29°42' W 094°09'3 6.0
2017-Sep-17 02:00N 29°41' W 094°12'37 4.7
2017-Sep-16 18:16N 29°30' W 094°52'2 7.9
2017-Sep-16 18:00N 29°31' W 094°53'4 7.6
2017-Sep-16 17:30N 29°34' W 094°56'4 7.4
2017-Sep-16 17:00N 29°38' W 094°58'4 7.8
2017-Sep-16 16:30N 29°41' W 094°59'4 6.7
2017-Sep-16 15:57N 29°44' W 095°02'3 6.3
2017-Sep-16 15:27N 29°46' W 095°05'1 1.2
2017-Sep-16 14:43N 29°45' W 095°06'0 0.2
2017-Sep-16 14:29N 29°45' W 095°06'0 0.0
2017-Sep-16 08:20N 29°45' W 095°06'0 0.0
2017-Sep-16 07:52N 29°45' W 095°06'0 0.0
2017-Sep-16 07:28N 29°45' W 095°06'0 0.0
2017-Sep-16 06:59N 29°45' W 095°06'0 0.0
2017-Sep-16 06:30N 29°45' W 095°06'0 0.0
2017-Sep-16 06:00N 29°45' W 095°06'0 0.0
2017-Sep-16 05:30N 29°45' W 095°06'0 0.0
2017-Sep-16 04:57N 29°45' W 095°06'0 0.0
2017-Sep-16 04:26N 29°45' W 095°06'0 0.0
2017-Sep-16 03:59N 29°45' W 095°06'0 0.0
2017-Sep-16 03:30N 29°45' W 095°06'0 0.0
2017-Sep-16 03:00N 29°45' W 095°06'0 0.0
2017-Sep-16 02:30N 29°45' W 095°06'0 0.0
2017-Sep-16 02:00N 29°45' W 095°06'0 0.0
2017-Sep-16 01:30N 29°45' W 095°06'0 0.0
2017-Sep-16 00:58N 29°45' W 095°06'0 0.0
2017-Sep-15 23:56N 29°45' W 095°06'0 0.0
2017-Sep-15 23:30N 29°45' W 095°06'0 0.0
2017-Sep-15 22:58N 29°45' W 095°06'0 0.0
2017-Sep-15 22:30N 29°45' W 095°06'0 0.0
2017-Sep-15 21:58N 29°45' W 095°06'0 0.3
2017-Sep-15 21:16N 29°45' W 095°06'0 0.9
2017-Sep-15 21:00N 29°45' W 095°06'0 0.0
2017-Sep-15 20:30N 29°45' W 095°06'1 1.1
2017-Sep-15 20:00N 29°45' W 095°06'0 0.0
2017-Sep-15 19:27N 29°45' W 095°06'0 0.0
2017-Sep-15 18:58N 29°45' W 095°06'0 0.0
2017-Sep-15 18:30N 29°45' W 095°06'0 0.0
2017-Sep-15 18:00N 29°45' W 095°06'0 0.0
2017-Sep-15 17:27N 29°45' W 095°06'0 0.0
2017-Sep-15 17:00N 29°45' W 095°06'0 0.2
2017-Sep-15 16:21N 29°45' W 095°06'1 2.8
2017-Sep-15 16:00N 29°46' W 095°05'1 2.7
2017-Sep-15 15:30N 29°47' W 095°04'0 0.1
2017-Sep-15 14:59N 29°47' W 095°04'0 0.7
2017-Sep-15 14:27N 29°47' W 095°04'1 0.1
2017-Sep-15 05:16N 29°47' W 095°05'1 2.8
2017-Sep-15 05:00N 29°47' W 095°04'1 1.0
2017-Sep-15 04:23N 29°47' W 095°05'0 0.1
2017-Sep-15 01:38N 29°47' W 095°05'0 0.0
2017-Sep-14 23:17N 29°47' W 095°05'0 0.0
2017-Sep-14 16:29N 29°47' W 095°05'1 0.7
2017-Sep-14 14:59N 29°46' W 095°05'2 3.9
2017-Sep-14 14:29N 29°45' W 095°04'3 5.2
2017-Sep-14 14:00N 29°43' W 095°01'3 5.6
2017-Sep-14 13:30N 29°41' W 094°59'3 6.8
2017-Sep-14 13:00N 29°38' W 094°58'3 6.7
2017-Sep-14 12:30N 29°35' W 094°56'3 6.9
2017-Sep-14 12:00N 29°32' W 094°54'3 6.9
2017-Sep-14 11:30N 29°29' W 094°52'  
Track history (hours):
 
Tides and Currents Weather Stations Pressure Air Temp Water Temp Dewpoint Dewpoint Depression Visibility Wind Speed Wind Dir Waves Ship Positions

MV Sebastian D

Owner: Enterprise Marine Services, LLC, San Antonio, TX. More information available from US FCC via Universal Licensing System and Coast Guard Vessel Documentation Center.

Last reported at 2017-Sep-17 04:45 UTC. Time now 2017-Sep-26 16:34 UTC.
Position N 29°49' W 093°59'.
Warning: this ship's position is 9 days out of date.

Length 25 m; draft 3 m.

Type: Towing. MMSI: 367663890.

Date/timePositionNaut miles runAvg speedWind from/ knotsBaromVisibWave heightAir tempDewpointWater temp
2017-Sep-17 04:45N 29°49' W 093°59'2 2.5
2017-Sep-17 04:03N 29°48' W 094°00'1 6.3
2017-Sep-17 03:49N 29°47' W 094°01'3 6.4
2017-Sep-17 03:23N 29°45' W 094°04'3 6.4
2017-Sep-17 02:59N 29°44' W 094°06'3 5.4
2017-Sep-17 02:30N 29°42' W 094°09'3 6.0
2017-Sep-17 02:00N 29°41' W 094°12'37 4.7
2017-Sep-16 18:16N 29°30' W 094°52'2 7.9
2017-Sep-16 18:00N 29°31' W 094°53'4 7.6
2017-Sep-16 17:30N 29°34' W 094°56'4 7.4
2017-Sep-16 17:00N 29°38' W 094°58'4 7.8
2017-Sep-16 16:30N 29°41' W 094°59'4 6.7
2017-Sep-16 15:57N 29°44' W 095°02'3 6.3
2017-Sep-16 15:27N 29°46' W 095°05'1 1.2
2017-Sep-16 14:43N 29°45' W 095°06'0 0.2
2017-Sep-16 14:29N 29°45' W 095°06'0 0.0
2017-Sep-16 08:20N 29°45' W 095°06'0 0.0
2017-Sep-16 07:52N 29°45' W 095°06'0 0.0
2017-Sep-16 07:28N 29°45' W 095°06'0 0.0
2017-Sep-16 06:59N 29°45' W 095°06'0 0.0
2017-Sep-16 06:30N 29°45' W 095°06'0 0.0
2017-Sep-16 06:00N 29°45' W 095°06'0 0.0
2017-Sep-16 05:30N 29°45' W 095°06'0 0.0
2017-Sep-16 04:57N 29°45' W 095°06'0 0.0
2017-Sep-16 04:26N 29°45' W 095°06'0 0.0
2017-Sep-16 03:59N 29°45' W 095°06'0 0.0
2017-Sep-16 03:30N 29°45' W 095°06'0 0.0
2017-Sep-16 03:00N 29°45' W 095°06'0 0.0
2017-Sep-16 02:30N 29°45' W 095°06'0 0.0
2017-Sep-16 02:00N 29°45' W 095°06'0 0.0
2017-Sep-16 01:30N 29°45' W 095°06'0 0.0
2017-Sep-16 00:58N 29°45' W 095°06'0 0.0
2017-Sep-15 23:56N 29°45' W 095°06'0 0.0
2017-Sep-15 23:30N 29°45' W 095°06'0 0.0
2017-Sep-15 22:58N 29°45' W 095°06'0 0.0
2017-Sep-15 22:30N 29°45' W 095°06'0 0.0
2017-Sep-15 21:58N 29°45' W 095°06'0 0.3
2017-Sep-15 21:16N 29°45' W 095°06'0 0.9
2017-Sep-15 21:00N 29°45' W 095°06'0 0.0
2017-Sep-15 20:30N 29°45' W 095°06'1 1.1
2017-Sep-15 20:00N 29°45' W 095°06'0 0.0
2017-Sep-15 19:27N 29°45' W 095°06'0 0.0
2017-Sep-15 18:58N 29°45' W 095°06'0 0.0
2017-Sep-15 18:30N 29°45' W 095°06'0 0.0
2017-Sep-15 18:00N 29°45' W 095°06'0 0.0
2017-Sep-15 17:27N 29°45' W 095°06'0 0.0
2017-Sep-15 17:00N 29°45' W 095°06'0 0.2
2017-Sep-15 16:21N 29°45' W 095°06'1 2.8
2017-Sep-15 16:00N 29°46' W 095°05'1 2.7
2017-Sep-15 15:30N 29°47' W 095°04'0 0.1
2017-Sep-15 14:59N 29°47' W 095°04'0 0.7
2017-Sep-15 14:27N 29°47' W 095°04'1 0.1
2017-Sep-15 05:16N 29°47' W 095°05'1 2.8
2017-Sep-15 05:00N 29°47' W 095°04'1 1.0
2017-Sep-15 04:23N 29°47' W 095°05'0 0.1
2017-Sep-15 01:38N 29°47' W 095°05'0 0.0
2017-Sep-14 23:17N 29°47' W 095°05'0 0.0
2017-Sep-14 16:29N 29°47' W 095°05'1 0.7
2017-Sep-14 14:59N 29°46' W 095°05'2 3.9
2017-Sep-14 14:29N 29°45' W 095°04'3 5.2
2017-Sep-14 14:00N 29°43' W 095°01'3 5.6
2017-Sep-14 13:30N 29°41' W 094°59'3 6.8
2017-Sep-14 13:00N 29°38' W 094°58'3 6.7
2017-Sep-14 12:30N 29°35' W 094°56'3 6.9
2017-Sep-14 12:00N 29°32' W 094°54'3 6.9
2017-Sep-14 11:30N 29°29' W 094°52'  

Dump ship's entire track history